sensor_id;sensor_type;location;lat;lon;timestamp;pressure;altitude;pressure_sealevel;temperature;humidity
31044;BME280;17710;52.520;13.352;2023-03-18T00:02:01;100717.38;;;13.66;35.39
31044;BME280;17710;52.520;13.352;2023-03-18T00:04:29;100715.16;;;13.75;35.31
31044;BME280;17710;52.520;13.352;2023-03-18T00:06:56;100713.63;;;13.88;35.28
31044;BME280;17710;52.520;13.352;2023-03-18T00:09:25;100711.50;;;13.78;35.26
31044;BME280;17710;52.520;13.352;2023-03-18T00:11:52;100723.94;;;13.94;35.00
31044;BME280;17710;52.520;13.352;2023-03-18T00:14:19;100720.47;;;13.75;35.44
31044;BME280;17710;52.520;13.352;2023-03-18T00:16:46;100715.78;;;13.80;34.97
31044;BME280;17710;52.520;13.352;2023-03-18T00:19:15;100710.84;;;13.73;35.13
31044;BME280;17710;52.520;13.352;2023-03-18T00:21:43;100713.19;;;13.79;35.31
31044;BME280;17710;52.520;13.352;2023-03-18T00:24:10;100715.28;;;13.72;35.08
31044;BME280;17710;52.520;13.352;2023-03-18T00:26:37;100705.94;;;13.65;35.31
31044;BME280;17710;52.520;13.352;2023-03-18T00:29:03;100706.50;;;13.72;35.18
31044;BME280;17710;52.520;13.352;2023-03-18T00:31:30;100699.03;;;13.61;35.47
31044;BME280;17710;52.520;13.352;2023-03-18T00:33:56;100699.66;;;13.66;35.39
31044;BME280;17710;52.520;13.352;2023-03-18T00:36:23;100702.47;;;13.63;35.34
31044;BME280;17710;52.520;13.352;2023-03-18T00:38:54;100711.38;;;13.62;35.53
31044;BME280;17710;52.520;13.352;2023-03-18T00:41:23;100712.06;;;13.30;36.00
31044;BME280;17710;52.520;13.352;2023-03-18T00:43:50;100703.75;;;13.37;36.09
31044;BME280;17710;52.520;13.352;2023-03-18T00:46:21;100703.38;;;13.26;36.02
31044;BME280;17710;52.520;13.352;2023-03-18T00:48:49;100699.38;;;13.36;35.88
31044;BME280;17710;52.520;13.352;2023-03-18T00:51:17;100700.91;;;13.40;35.66
31044;BME280;17710;52.520;13.352;2023-03-18T00:53:47;100699.88;;;13.26;35.95
31044;BME280;17710;52.520;13.352;2023-03-18T00:56:17;100702.72;;;13.40;35.73
31044;BME280;17710;52.520;13.352;2023-03-18T00:58:43;100705.66;;;13.34;35.77
31044;BME280;17710;52.520;13.352;2023-03-18T01:01:10;100698.00;;;13.28;35.81
31044;BME280;17710;52.520;13.352;2023-03-18T01:03:38;100702.28;;;13.11;36.10
31044;BME280;17710;52.520;13.352;2023-03-18T01:06:06;100702.53;;;13.26;35.70
31044;BME280;17710;52.520;13.352;2023-03-18T01:08:34;100703.00;;;13.34;35.81
31044;BME280;17710;52.520;13.352;2023-03-18T01:11:00;100703.38;;;13.26;35.79
31044;BME280;17710;52.520;13.352;2023-03-18T01:13:29;100697.50;;;13.20;36.15
31044;BME280;17710;52.520;13.352;2023-03-18T01:15:55;100689.75;;;13.34;35.44
31044;BME280;17710;52.520;13.352;2023-03-18T01:18:22;100693.69;;;13.44;35.37
31044;BME280;17710;52.520;13.352;2023-03-18T01:20:49;100697.09;;;13.46;35.23
31044;BME280;17710;52.520;13.352;2023-03-18T01:23:16;100687.81;;;13.37;35.44
31044;BME280;17710;52.520;13.352;2023-03-18T01:25:42;100694.03;;;12.99;36.02
31044;BME280;17710;52.520;13.352;2023-03-18T01:28:09;100691.53;;;13.14;35.89
31044;BME280;17710;52.520;13.352;2023-03-18T01:30:38;100693.28;;;13.15;35.70
31044;BME280;17710;52.520;13.352;2023-03-18T01:33:05;100700.06;;;13.21;35.77
31044;BME280;17710;52.520;13.352;2023-03-18T01:35:32;100682.00;;;13.10;35.56
31044;BME280;17710;52.520;13.352;2023-03-18T01:38:00;100698.84;;;13.28;35.51
31044;BME280;17710;52.520;13.352;2023-03-18T01:40:27;100683.84;;;13.08;35.73
31044;BME280;17710;52.520;13.352;2023-03-18T01:43:11;100691.97;;;13.05;35.83
31044;BME280;17710;52.520;13.352;2023-03-18T01:45:43;100692.72;;;13.07;35.78
31044;BME280;17710;52.520;13.352;2023-03-18T01:48:14;100685.41;;;12.94;36.10
31044;BME280;17710;52.520;13.352;2023-03-18T01:50:42;100683.63;;;12.94;35.90
31044;BME280;17710;52.520;13.352;2023-03-18T01:53:11;100677.22;;;13.19;35.64
31044;BME280;17710;52.520;13.352;2023-03-18T01:55:39;100680.00;;;13.15;35.60
31044;BME280;17710;52.520;13.352;2023-03-18T01:58:09;100685.94;;;13.21;35.39
31044;BME280;17710;52.520;13.352;2023-03-18T02:00:41;100690.25;;;13.23;35.59
31044;BME280;17710;52.520;13.352;2023-03-18T02:03:10;100684.38;;;13.16;35.59
31044;BME280;17710;52.520;13.352;2023-03-18T02:05:37;100684.56;;;13.12;35.45
31044;BME280;17710;52.520;13.352;2023-03-18T02:08:05;100689.88;;;13.12;35.54
31044;BME280;17710;52.520;13.352;2023-03-18T02:10:32;100693.91;;;13.21;35.63
31044;BME280;17710;52.520;13.352;2023-03-18T02:13:02;100691.69;;;13.30;35.52
31044;BME280;17710;52.520;13.352;2023-03-18T02:15:30;100692.41;;;13.15;35.33
31044;BME280;17710;52.520;13.352;2023-03-18T02:18:03;100692.53;;;13.12;35.71
31044;BME280;17710;52.520;13.352;2023-03-18T02:20:41;100686.81;;;13.21;35.49
31044;BME280;17710;52.520;13.352;2023-03-18T02:23:16;100695.25;;;13.10;35.40
31044;BME280;17710;52.520;13.352;2023-03-18T02:25:54;100687.03;;;13.16;35.60
31044;BME280;17710;52.520;13.352;2023-03-18T02:28:28;100681.50;;;13.21;35.30
31044;BME280;17710;52.520;13.352;2023-03-18T02:30:59;100687.53;;;13.25;35.22
31044;BME280;17710;52.520;13.352;2023-03-18T02:33:31;100683.78;;;13.29;35.09
31044;BME280;17710;52.520;13.352;2023-03-18T02:36:01;100693.91;;;13.21;35.29
31044;BME280;17710;52.520;13.352;2023-03-18T02:38:28;100687.59;;;13.23;35.45
31044;BME280;17710;52.520;13.352;2023-03-18T02:40:55;100686.63;;;13.26;35.35
31044;BME280;17710;52.520;13.352;2023-03-18T02:43:23;100690.03;;;13.28;35.26
31044;BME280;17710;52.520;13.352;2023-03-18T02:46:00;100679.72;;;13.22;35.28
31044;BME280;17710;52.520;13.352;2023-03-18T02:48:34;100678.25;;;13.33;34.99
31044;BME280;17710;52.520;13.352;2023-03-18T02:51:01;100692.56;;;13.31;35.12
31044;BME280;17710;52.520;13.352;2023-03-18T02:53:28;100688.59;;;13.21;35.24
31044;BME280;17710;52.520;13.352;2023-03-18T02:55:54;100680.00;;;13.15;35.24
31044;BME280;17710;52.520;13.352;2023-03-18T02:58:20;100679.72;;;13.22;35.34
31044;BME280;17710;52.520;13.352;2023-03-18T03:00:47;100683.72;;;13.11;35.60
31044;BME280;17710;52.520;13.352;2023-03-18T03:03:15;100680.19;;;13.11;35.56
31044;BME280;17710;52.520;13.352;2023-03-18T03:05:41;100677.97;;;13.02;35.76
31044;BME280;17710;52.520;13.352;2023-03-18T03:08:11;100672.25;;;12.92;35.88
31044;BME280;17710;52.520;13.352;2023-03-18T03:10:37;100671.38;;;12.92;36.01
31044;BME280;17710;52.520;13.352;2023-03-18T03:13:05;100683.72;;;12.93;35.85
31044;BME280;17710;52.520;13.352;2023-03-18T03:15:31;100687.19;;;12.93;35.91
31044;BME280;17710;52.520;13.352;2023-03-18T03:17:58;100684.53;;;12.93;35.96
31044;BME280;17710;52.520;13.352;2023-03-18T03:20:26;100693.22;;;12.97;35.82
31044;BME280;17710;52.520;13.352;2023-03-18T03:22:52;100693.53;;;13.09;35.84
31044;BME280;17710;52.520;13.352;2023-03-18T03:25:19;100691.28;;;13.00;36.13
31044;BME280;17710;52.520;13.352;2023-03-18T03:27:46;100691.72;;;13.10;35.82
31044;BME280;17710;52.520;13.352;2023-03-18T03:30:14;100691.81;;;13.27;35.59
31044;BME280;17710;52.520;13.352;2023-03-18T03:32:41;100694.31;;;12.93;36.30
31044;BME280;17710;52.520;13.352;2023-03-18T03:35:11;100686.44;;;13.10;35.82
31044;BME280;17710;52.520;13.352;2023-03-18T03:37:39;100687.28;;;13.10;35.88
31044;BME280;17710;52.520;13.352;2023-03-18T03:40:07;100691.00;;;13.06;35.84
31044;BME280;17710;52.520;13.352;2023-03-18T03:42:34;100694.75;;;13.02;35.91
31044;BME280;17710;52.520;13.352;2023-03-18T03:45:01;100684.47;;;12.95;36.15
31044;BME280;17710;52.520;13.352;2023-03-18T03:47:29;100686.38;;;13.11;35.88
31044;BME280;17710;52.520;13.352;2023-03-18T03:49:56;100698.53;;;12.97;36.32
31044;BME280;17710;52.520;13.352;2023-03-18T03:52:23;100689.75;;;13.34;35.44
31044;BME280;17710;52.520;13.352;2023-03-18T03:54:51;100694.56;;;13.26;35.70
31044;BME280;17710;52.520;13.352;2023-03-18T03:57:17;100696.13;;;13.30;35.85
31044;BME280;17710;52.520;13.352;2023-03-18T03:59:44;100693.34;;;13.14;35.75
31044;BME280;17710;52.520;13.352;2023-03-18T04:02:10;100689.09;;;13.10;35.94
31044;BME280;17710;52.520;13.352;2023-03-18T04:04:37;100683.78;;;13.10;35.92
31044;BME280;17710;52.520;13.352;2023-03-18T04:07:04;100688.91;;;12.94;36.11
31044;BME280;17710;52.520;13.352;2023-03-18T04:09:30;100696.09;;;13.12;36.07
31044;BME280;17710;52.520;13.352;2023-03-18T04:12:00;100704.81;;;13.14;36.00
31044;BME280;17710;52.520;13.352;2023-03-18T04:14:28;100703.34;;;13.07;36.04
31044;BME280;17710;52.520;13.352;2023-03-18T04:16:54;100713.28;;;13.23;35.80
31044;BME280;17710;52.520;13.352;2023-03-18T04:19:22;100713.56;;;13.16;36.03
31044;BME280;17710;52.520;13.352;2023-03-18T04:21:49;100717.59;;;12.86;36.47
31044;BME280;17710;52.520;13.352;2023-03-18T04:24:16;100711.16;;;13.10;36.26
31044;BME280;17710;52.520;13.352;2023-03-18T04:26:43;100711.44;;;13.25;35.86
31044;BME280;17710;52.520;13.352;2023-03-18T04:29:11;100710.00;;;13.18;36.02
31044;BME280;17710;52.520;13.352;2023-03-18T04:31:38;100713.34;;;13.40;35.71
31044;BME280;17710;52.520;13.352;2023-03-18T04:34:04;100715.31;;;12.97;36.32
31044;BME280;17710;52.520;13.352;2023-03-18T04:36:31;100709.78;;;13.02;36.16
31044;BME280;17710;52.520;13.352;2023-03-18T04:38:57;100718.91;;;12.96;36.38
31044;BME280;17710;52.520;13.352;2023-03-18T04:41:24;100729.28;;;13.01;36.33
31044;BME280;17710;52.520;13.352;2023-03-18T04:43:51;100716.94;;;13.00;36.01
31044;BME280;17710;52.520;13.352;2023-03-18T04:46:19;100724.44;;;13.10;35.81
31044;BME280;17710;52.520;13.352;2023-03-18T04:48:46;100715.00;;;13.24;35.79
31044;BME280;17710;52.520;13.352;2023-03-18T04:51:12;100728.06;;;13.08;36.03
31044;BME280;17710;52.520;13.352;2023-03-18T04:53:39;100722.63;;;13.31;35.67
31044;BME280;17710;52.520;13.352;2023-03-18T04:56:06;100732.75;;;13.03;35.98
31044;BME280;17710;52.520;13.352;2023-03-18T04:58:33;100734.56;;;13.21;35.70
31044;BME280;17710;52.520;13.352;2023-03-18T05:01:00;100731.97;;;13.20;35.72
31044;BME280;17710;52.520;13.352;2023-03-18T05:03:27;100736.94;;;13.27;35.60
31044;BME280;17710;52.520;13.352;2023-03-18T05:05:54;100725.28;;;13.11;35.88
31044;BME280;17710;52.520;13.352;2023-03-18T05:08:21;100727.94;;;13.11;35.78
31044;BME280;17710;52.520;13.352;2023-03-18T05:10:48;100736.53;;;13.18;35.68
31044;BME280;17710;52.520;13.352;2023-03-18T05:13:14;100731.81;;;13.04;35.78
31044;BME280;17710;52.520;13.352;2023-03-18T05:15:41;100734.78;;;13.16;35.61
31044;BME280;17710;52.520;13.352;2023-03-18T05:18:08;100734.94;;;12.93;36.02
31044;BME280;17710;52.520;13.352;2023-03-18T05:20:36;100732.16;;;12.96;36.09
31044;BME280;17710;52.520;13.352;2023-03-18T05:23:02;100724.25;;;12.95;36.10
31044;BME280;17710;52.520;13.352;2023-03-18T05:25:30;100735.22;;;12.87;36.19
31044;BME280;17710;52.520;13.352;2023-03-18T05:27:57;100739.31;;;12.94;35.95
31044;BME280;17710;52.520;13.352;2023-03-18T05:30:24;100725.34;;;12.91;36.27
31044;BME280;17710;52.520;13.352;2023-03-18T05:32:50;100729.44;;;12.98;36.22
31044;BME280;17710;52.520;13.352;2023-03-18T05:35:16;100726.72;;;12.99;36.11
31044;BME280;17710;52.520;13.352;2023-03-18T05:37:44;100727.88;;;12.73;36.53
31044;BME280;17710;52.520;13.352;2023-03-18T05:40:12;100734.84;;;12.76;36.56
31044;BME280;17710;52.520;13.352;2023-03-18T05:42:39;100735.44;;;12.83;36.43
31044;BME280;17710;52.520;13.352;2023-03-18T05:45:06;100740.03;;;12.79;36.60
31044;BME280;17710;52.520;13.352;2023-03-18T05:47:33;100740.41;;;12.90;36.41
31044;BME280;17710;52.520;13.352;2023-03-18T05:50:01;100741.72;;;12.80;36.66
31044;BME280;17710;52.520;13.352;2023-03-18T05:52:28;100740.34;;;12.92;36.51
31044;BME280;17710;52.520;13.352;2023-03-18T05:54:55;100735.59;;;12.98;36.34
31044;BME280;17710;52.520;13.352;2023-03-18T05:57:22;100743.69;;;12.95;36.45
31044;BME280;17710;52.520;13.352;2023-03-18T05:59:48;100749.63;;;13.00;36.35
31044;BME280;17710;52.520;13.352;2023-03-18T06:02:15;100745.59;;;13.12;36.19
31044;BME280;17710;52.520;13.352;2023-03-18T06:04:41;100744.78;;;12.91;36.51
31044;BME280;17710;52.520;13.352;2023-03-18T06:07:08;100746.78;;;12.86;36.56
31044;BME280;17710;52.520;13.352;2023-03-18T06:09:34;100739.44;;;12.72;36.93
31044;BME280;17710;52.520;13.352;2023-03-18T06:12:02;100736.09;;;13.06;36.32
31044;BME280;17710;52.520;13.352;2023-03-18T06:14:29;100741.25;;;12.91;36.60
31044;BME280;17710;52.520;13.352;2023-03-18T06:16:55;100739.91;;;13.01;36.39
31044;BME280;17710;52.520;13.352;2023-03-18T06:19:22;100739.25;;;12.96;36.59
31044;BME280;17710;52.520;13.352;2023-03-18T06:21:49;100744.19;;;12.85;37.01
31044;BME280;17710;52.520;13.352;2023-03-18T06:24:16;100744.22;;;13.03;36.77
31044;BME280;17710;52.520;13.352;2023-03-18T06:26:43;100747.28;;;12.94;36.72
31044;BME280;17710;52.520;13.352;2023-03-18T06:29:11;100762.41;;;12.92;36.77
31044;BME280;17710;52.520;13.352;2023-03-18T06:31:37;100768.28;;;12.60;37.51
31044;BME280;17710;52.520;13.352;2023-03-18T06:34:04;100768.00;;;12.86;37.15
31044;BME280;17710;52.520;13.352;2023-03-18T06:36:30;100769.56;;;12.90;36.96
31044;BME280;17710;52.520;13.352;2023-03-18T06:38:57;100773.66;;;12.97;36.89
31044;BME280;17710;52.520;13.352;2023-03-18T06:41:24;100764.09;;;12.93;36.91
31044;BME280;17710;52.520;13.352;2023-03-18T06:43:52;100762.84;;;13.02;36.84
31044;BME280;17710;52.520;13.352;2023-03-18T06:46:20;100754.47;;;12.92;36.92
31044;BME280;17710;52.520;13.352;2023-03-18T06:48:47;100762.41;;;12.92;37.16
31044;BME280;17710;52.520;13.352;2023-03-18T06:51:14;100766.28;;;13.04;36.74
31044;BME280;17710;52.520;13.352;2023-03-18T06:53:40;100766.50;;;12.99;36.83
31044;BME280;17710;52.520;13.352;2023-03-18T06:56:07;100773.28;;;12.86;37.41
31044;BME280;17710;52.520;13.352;2023-03-18T06:58:34;100773.84;;;13.13;36.91
31044;BME280;17710;52.520;13.352;2023-03-18T07:01:00;100780.38;;;13.06;36.80
31044;BME280;17710;52.520;13.352;2023-03-18T07:03:28;100778.41;;;13.09;36.80
31044;BME280;17710;52.520;13.352;2023-03-18T07:05:54;100784.41;;;13.33;36.57
31044;BME280;17710;52.520;13.352;2023-03-18T07:08:21;100789.75;;;13.52;36.08
31044;BME280;17710;52.520;13.352;2023-03-18T07:10:50;100803.09;;;13.32;36.54
31044;BME280;17710;52.520;13.352;2023-03-18T07:13:17;100800.28;;;13.35;36.58
31044;BME280;17710;52.520;13.352;2023-03-18T07:15:44;100809.69;;;13.42;36.72
31044;BME280;17710;52.520;13.352;2023-03-18T07:18:10;100809.69;;;13.42;36.57
31044;BME280;17710;52.520;13.352;2023-03-18T07:20:39;100817.53;;;13.45;36.50
31044;BME280;17710;52.520;13.352;2023-03-18T07:23:09;100809.09;;;13.35;36.55
31044;BME280;17710;52.520;13.352;2023-03-18T07:25:36;100804.94;;;13.67;36.30
31044;BME280;17710;52.520;13.352;2023-03-18T07:28:05;100808.53;;;13.66;36.39
31044;BME280;17710;52.520;13.352;2023-03-18T07:30:32;100794.56;;;13.63;36.34
31044;BME280;17710;52.520;13.352;2023-03-18T07:32:58;100801.63;;;13.81;36.16
31044;BME280;17710;52.520;13.352;2023-03-18T07:35:27;100808.59;;;13.83;36.44
31044;BME280;17710;52.520;13.352;2023-03-18T07:37:55;100809.75;;;13.96;36.11
31044;BME280;17710;52.520;13.352;2023-03-18T07:40:22;100807.53;;;14.23;35.68
31044;BME280;17710;52.520;13.352;2023-03-18T07:42:49;100816.94;;;14.30;35.75
31044;BME280;17710;52.520;13.352;2023-03-18T07:45:17;100819.53;;;14.66;35.15
31044;BME280;17710;52.520;13.352;2023-03-18T07:47:44;100822.19;;;14.66;35.05
31044;BME280;17710;52.520;13.352;2023-03-18T07:50:10;100823.22;;;14.81;35.13
31044;BME280;17710;52.520;13.352;2023-03-18T07:52:37;100821.69;;;15.10;34.77
31044;BME280;17710;52.520;13.352;2023-03-18T07:55:06;100825.59;;;15.53;34.12
31044;BME280;17710;52.520;13.352;2023-03-18T07:57:33;100829.13;;;15.53;33.99
31044;BME280;17710;52.520;13.352;2023-03-18T08:00:00;100831.84;;;15.52;34.06
31044;BME280;17710;52.520;13.352;2023-03-18T08:02:27;100836.91;;;15.74;34.13
31044;BME280;17710;52.520;13.352;2023-03-18T08:04:53;100837.25;;;15.99;33.54
31044;BME280;17710;52.520;13.352;2023-03-18T08:07:20;100837.75;;;15.74;33.78
31044;BME280;17710;52.520;13.352;2023-03-18T08:09:48;100835.50;;;15.98;33.74
31044;BME280;17710;52.520;13.352;2023-03-18T08:12:16;100831.72;;;16.18;33.54
31044;BME280;17710;52.520;13.352;2023-03-18T08:14:43;100836.47;;;16.13;33.39
31044;BME280;17710;52.520;13.352;2023-03-18T08:17:09;100825.97;;;16.10;33.63
31044;BME280;17710;52.520;13.352;2023-03-18T08:19:36;100827.09;;;16.06;33.71
31044;BME280;17710;52.520;13.352;2023-03-18T08:22:03;100831.13;;;16.58;33.15
31044;BME280;17710;52.520;13.352;2023-03-18T08:24:29;100840.44;;;16.67;33.13
31044;BME280;17710;52.520;13.352;2023-03-18T08:26:56;100845.31;;;16.59;33.10
31044;BME280;17710;52.520;13.352;2023-03-18T08:29:25;100850.38;;;16.79;32.92
31044;BME280;17710;52.520;13.352;2023-03-18T08:31:51;100847.56;;;17.10;32.74
31044;BME280;17710;52.520;13.352;2023-03-18T08:34:18;100850.63;;;17.04;32.86
31044;BME280;17710;52.520;13.352;2023-03-18T08:36:46;100850.53;;;17.20;32.67
31044;BME280;17710;52.520;13.352;2023-03-18T08:39:13;100859.69;;;17.16;33.06
31044;BME280;17710;52.520;13.352;2023-03-18T08:41:40;100856.75;;;17.35;32.61
31044;BME280;17710;52.520;13.352;2023-03-18T08:44:07;100850.75;;;17.31;32.75
31044;BME280;17710;52.520;13.352;2023-03-18T08:46:36;100846.53;;;17.56;32.31
31044;BME280;17710;52.520;13.352;2023-03-18T08:49:03;100847.44;;;17.70;32.20
31044;BME280;17710;52.520;13.352;2023-03-18T08:51:29;100848.66;;;17.50;32.41
31044;BME280;17710;52.520;13.352;2023-03-18T08:53:56;100842.44;;;17.22;33.07
31044;BME280;17710;52.520;13.352;2023-03-18T08:56:24;100839.97;;;17.61;32.32
31044;BME280;17710;52.520;13.352;2023-03-18T08:58:50;100836.78;;;17.97;31.99
31044;BME280;17710;52.520;13.352;2023-03-18T09:01:17;100848.00;;;18.16;31.90
31044;BME280;17710;52.520;13.352;2023-03-18T09:03:47;100859.38;;;18.06;32.02
31044;BME280;17710;52.520;13.352;2023-03-18T09:06:14;100857.75;;;18.17;31.92
31044;BME280;17710;52.520;13.352;2023-03-18T09:08:41;100868.31;;;18.19;31.91
31044;BME280;17710;52.520;13.352;2023-03-18T09:11:08;100861.06;;;18.21;31.89
31044;BME280;17710;52.520;13.352;2023-03-18T09:13:34;100866.00;;;18.27;31.79
31044;BME280;17710;52.520;13.352;2023-03-18T09:16:03;100859.56;;;18.17;32.05
31044;BME280;17710;52.520;13.352;2023-03-18T09:18:30;100863.72;;;17.94;32.76
31044;BME280;17710;52.520;13.352;2023-03-18T09:21:03;100862.44;;;18.00;32.43
31044;BME280;17710;52.520;13.352;2023-03-18T09:23:34;100854.81;;;18.08;32.42
31044;BME280;17710;52.520;13.352;2023-03-18T09:26:01;100866.41;;;18.62;32.00
31044;BME280;17710;52.520;13.352;2023-03-18T09:28:27;100865.16;;;18.53;31.89
31044;BME280;17710;52.520;13.352;2023-03-18T09:30:54;100865.25;;;18.79;31.79
31044;BME280;17710;52.520;13.352;2023-03-18T09:33:21;100868.56;;;18.69;31.95
31044;BME280;17710;52.520;13.352;2023-03-18T09:35:48;100871.91;;;18.86;31.98
31044;BME280;17710;52.520;13.352;2023-03-18T09:38:18;100868.31;;;19.12;31.56
31044;BME280;17710;52.520;13.352;2023-03-18T09:40:54;100876.31;;;18.99;31.89
31044;BME280;17710;52.520;13.352;2023-03-18T09:43:33;100880.72;;;18.88;31.79
31044;BME280;17710;52.520;13.352;2023-03-18T09:46:10;100874.63;;;19.11;31.70
31044;BME280;17710;52.520;13.352;2023-03-18T09:48:50;100875.19;;;19.67;31.16
31044;BME280;17710;52.520;13.352;2023-03-18T09:51:30;100869.09;;;19.52;31.09
31044;BME280;17710;52.520;13.352;2023-03-18T09:54:03;100876.13;;;19.78;30.75
31044;BME280;17710;52.520;13.352;2023-03-18T09:56:33;100880.88;;;19.75;30.75
31044;BME280;17710;52.520;13.352;2023-03-18T09:59:03;100872.25;;;19.95;30.69
31044;BME280;17710;52.520;13.352;2023-03-18T10:01:33;100874.72;;;19.98;30.74
31044;BME280;17710;52.520;13.352;2023-03-18T10:04:04;100873.63;;;20.01;30.34
31044;BME280;17710;52.520;13.352;2023-03-18T10:06:32;100879.56;;;19.93;30.88
31044;BME280;17710;52.520;13.352;2023-03-18T10:09:08;100874.09;;;20.18;30.78
31044;BME280;17710;52.520;13.352;2023-03-18T10:11:40;100876.59;;;20.69;30.13
31044;BME280;17710;52.520;13.352;2023-03-18T10:14:17;100873.75;;;20.94;29.74
31044;BME280;17710;52.520;13.352;2023-03-18T10:16:52;100873.81;;;21.05;29.38
31044;BME280;17710;52.520;13.352;2023-03-18T10:19:20;100874.81;;;21.16;29.38
31044;BME280;17710;52.520;13.352;2023-03-18T10:21:54;100872.34;;;21.13;29.37
31044;BME280;17710;52.520;13.352;2023-03-18T10:24:31;100867.78;;;21.26;29.45
31044;BME280;17710;52.520;13.352;2023-03-18T10:27:08;100868.44;;;21.05;29.79
31044;BME280;17710;52.520;13.352;2023-03-18T10:29:41;100870.34;;;20.92;29.64
31044;BME280;17710;52.520;13.352;2023-03-18T10:32:18;100869.38;;;20.93;29.70
31044;BME280;17710;52.520;13.352;2023-03-18T10:34:58;100871.94;;;20.95;30.11
31044;BME280;17710;52.520;13.352;2023-03-18T10:37:35;100867.81;;;20.67;30.63
31044;BME280;17710;52.520;13.352;2023-03-18T10:40:13;100870.16;;;21.06;29.89
31044;BME280;17710;52.520;13.352;2023-03-18T10:42:40;100862.69;;;20.75;30.25
31044;BME280;17710;52.520;13.352;2023-03-18T10:45:16;100872.50;;;20.87;30.32
31044;BME280;17710;52.520;13.352;2023-03-18T10:47:48;100863.34;;;20.55;30.83
31044;BME280;17710;52.520;13.352;2023-03-18T10:50:19;100869.22;;;20.84;31.09
31044;BME280;17710;52.520;13.352;2023-03-18T10:52:51;100869.78;;;20.76;30.79
31044;BME280;17710;52.520;13.352;2023-03-18T10:55:23;100870.22;;;20.94;30.65
31044;BME280;17710;52.520;13.352;2023-03-18T10:57:55;100873.03;;;20.92;30.71
31044;BME280;17710;52.520;13.352;2023-03-18T11:00:27;100881.78;;;20.83;30.89
31044;BME280;17710;52.520;13.352;2023-03-18T11:02:54;100875.09;;;21.24;30.98
31044;BME280;17710;52.520;13.352;2023-03-18T11:05:23;100868.03;;;21.45;31.05
31044;BME280;17710;52.520;13.352;2023-03-18T11:07:57;100867.66;;;21.61;30.24
31044;BME280;17710;52.520;13.352;2023-03-18T11:10:27;100875.13;;;21.46;30.15
31044;BME280;17710;52.520;13.352;2023-03-18T11:12:57;100872.06;;;21.73;30.05
31044;BME280;17710;52.520;13.352;2023-03-18T11:15:24;100874.91;;;21.71;30.39
31044;BME280;17710;52.520;13.352;2023-03-18T11:17:51;100871.22;;;21.83;30.41
31044;BME280;17710;52.520;13.352;2023-03-18T11:20:21;100870.97;;;21.75;30.14
31044;BME280;17710;52.520;13.352;2023-03-18T11:22:50;100867.31;;;21.65;30.37
31044;BME280;17710;52.520;13.352;2023-03-18T11:25:20;100868.28;;;21.64;30.34
31044;BME280;17710;52.520;13.352;2023-03-18T11:27:56;100862.19;;;21.84;30.17
31044;BME280;17710;52.520;13.352;2023-03-18T11:30:24;100865.09;;;22.15;30.15
31044;BME280;17710;52.520;13.352;2023-03-18T11:32:53;100866.69;;;21.51;31.39
31044;BME280;17710;52.520;13.352;2023-03-18T11:35:21;100877.81;;;21.46;31.64
31044;BME280;17710;52.520;13.352;2023-03-18T11:37:49;100864.13;;;21.49;32.10
31044;BME280;17710;52.520;13.352;2023-03-18T11:40:23;100869.38;;;21.62;32.04
31044;BME280;17710;52.520;13.352;2023-03-18T11:42:55;100868.03;;;21.67;32.17
31044;BME280;17710;52.520;13.352;2023-03-18T11:45:37;100874.75;;;21.62;32.72
31044;BME280;17710;52.520;13.352;2023-03-18T11:48:14;100873.78;;;21.74;32.54
31044;BME280;17710;52.520;13.352;2023-03-18T11:50:48;100871.09;;;21.63;32.59
31044;BME280;17710;52.520;13.352;2023-03-18T11:53:26;100862.91;;;21.64;32.31
31044;BME280;17710;52.520;13.352;2023-03-18T11:55:58;100855.94;;;21.84;32.37
31044;BME280;17710;52.520;13.352;2023-03-18T11:58:50;100862.16;;;21.73;32.71
31044;BME280;17710;52.520;13.352;2023-03-18T12:01:22;100854.59;;;21.56;33.19
31044;BME280;17710;52.520;13.352;2023-03-18T12:04:13;100856.66;;;21.75;33.20
31044;BME280;17710;52.520;13.352;2023-03-18T12:06:53;100866.81;;;21.60;33.45
31044;BME280;17710;52.520;13.352;2023-03-18T12:09:28;100863.78;;;21.65;33.23
31044;BME280;17710;52.520;13.352;2023-03-18T12:12:12;100865.09;;;21.81;33.06
31044;BME280;17710;52.520;13.352;2023-03-18T12:14:50;100861.44;;;21.60;33.64
31044;BME280;17710;52.520;13.352;2023-03-18T12:17:28;100870.97;;;21.53;33.92
31044;BME280;17710;52.520;13.352;2023-03-18T12:20:14;100866.56;;;21.63;34.19
31044;BME280;17710;52.520;13.352;2023-03-18T12:22:55;100873.69;;;21.64;34.22
31044;BME280;17710;52.520;13.352;2023-03-18T12:28:18;100865.00;;;21.72;34.31
31044;BME280;17710;52.520;13.352;2023-03-18T12:30:58;100876.63;;;21.72;34.92
31044;BME280;17710;52.520;13.352;2023-03-18T12:33:37;100863.91;;;21.52;34.90
31044;BME280;17710;52.520;13.352;2023-03-18T12:36:16;100873.41;;;21.90;34.30
31044;BME280;17710;52.520;13.352;2023-03-18T12:38:58;100865.34;;;22.01;34.48
31044;BME280;17710;52.520;13.352;2023-03-18T12:41:35;100870.13;;;21.75;34.79
31044;BME280;17710;52.520;13.352;2023-03-18T12:44:17;100861.44;;;21.82;34.74
31044;BME280;17710;52.520;13.352;2023-03-18T12:46:53;100863.91;;;21.97;34.59
31044;BME280;17710;52.520;13.352;2023-03-18T12:49:22;100870.22;;;22.07;34.46
31044;BME280;17710;52.520;13.352;2023-03-18T12:51:55;100863.38;;;22.14;34.59
31044;BME280;17710;52.520;13.352;2023-03-18T12:54:28;100862.13;;;22.29;34.63